sensor_id;sensor_type;location;lat;lon;timestamp;pressure;altitude;pressure_sealevel;temperature;humidity
76627;BME280;65519;53.230;10.390;2023-09-18T00:00:14;100709.59;;;19.66;74.55
76627;BME280;65519;53.230;10.390;2023-09-18T00:02:39;100708.13;;;19.60;74.77
76627;BME280;65519;53.230;10.390;2023-09-18T00:05:05;100712.03;;;19.59;74.94
76627;BME280;65519;53.230;10.390;2023-09-18T00:07:30;100706.66;;;19.63;74.51
76627;BME280;65519;53.230;10.390;2023-09-18T00:09:56;100702.47;;;19.57;75.11
76627;BME280;65519;53.230;10.390;2023-09-18T00:12:21;100702.59;;;19.60;74.50
76627;BME280;65519;53.230;10.390;2023-09-18T00:14:50;100680.16;;;19.53;74.58
76627;BME280;65519;53.230;10.390;2023-09-18T00:17:16;100690.09;;;19.54;74.74
76627;BME280;65519;53.230;10.390;2023-09-18T00:19:42;100686.50;;;19.54;74.45
76627;BME280;65519;53.230;10.390;2023-09-18T00:22:08;100688.47;;;19.53;74.44
76627;BME280;65519;53.230;10.390;2023-09-18T00:24:33;100691.03;;;19.58;74.26
76627;BME280;65519;53.230;10.390;2023-09-18T00:26:59;100688.28;;;19.58;74.31
76627;BME280;65519;53.230;10.390;2023-09-18T00:29:24;100688.63;;;19.57;74.28
76627;BME280;65519;53.230;10.390;2023-09-18T00:31:50;100686.19;;;19.47;74.79
76627;BME280;65519;53.230;10.390;2023-09-18T00:34:15;100690.09;;;19.46;74.84
76627;BME280;65519;53.230;10.390;2023-09-18T00:36:41;100680.50;;;19.43;74.79
76627;BME280;65519;53.230;10.390;2023-09-18T00:39:06;100673.03;;;19.35;75.05
76627;BME280;65519;53.230;10.390;2023-09-18T00:41:32;100674.63;;;19.36;75.24
76627;BME280;65519;53.230;10.390;2023-09-18T00:43:57;100675.31;;;19.33;75.33
76627;BME280;65519;53.230;10.390;2023-09-18T00:46:23;100668.00;;;19.28;74.96
76627;BME280;65519;53.230;10.390;2023-09-18T00:48:49;100660.69;;;19.24;75.35
76627;BME280;65519;53.230;10.390;2023-09-18T00:51:16;100662.47;;;19.28;75.72
76627;BME280;65519;53.230;10.390;2023-09-18T00:53:46;100664.41;;;19.28;75.57
76627;BME280;65519;53.230;10.390;2023-09-18T00:56:16;100652.06;;;19.25;75.41
76627;BME280;65519;53.230;10.390;2023-09-18T00:58:44;100650.09;;;19.26;75.36
76627;BME280;65519;53.230;10.390;2023-09-18T01:01:11;100654.03;;;19.16;75.82
76627;BME280;65519;53.230;10.390;2023-09-18T01:03:37;100642.16;;;19.16;75.66
76627;BME280;65519;53.230;10.390;2023-09-18T01:06:02;100646.06;;;19.15;75.75
76627;BME280;65519;53.230;10.390;2023-09-18T01:08:29;100638.25;;;19.17;75.56
76627;BME280;65519;53.230;10.390;2023-09-18T01:13:38;100630.31;;;19.07;76.13
76627;BME280;65519;53.230;10.390;2023-09-18T01:16:17;100626.91;;;19.10;76.16
76627;BME280;65519;53.230;10.390;2023-09-18T01:18:51;100621.53;;;19.05;76.10
76627;BME280;65519;53.230;10.390;2023-09-18T01:21:20;100617.63;;;19.06;76.09
76627;BME280;65519;53.230;10.390;2023-09-18T01:23:48;100616.50;;;19.07;76.07
76627;BME280;65519;53.230;10.390;2023-09-18T01:26:14;100605.44;;;19.07;75.97
76627;BME280;65519;53.230;10.390;2023-09-18T01:28:40;100608.69;;;19.09;76.32
76627;BME280;65519;53.230;10.390;2023-09-18T01:31:05;100604.84;;;18.92;76.86
76627;BME280;65519;53.230;10.390;2023-09-18T01:33:32;100593.09;;;18.95;76.42
76627;BME280;65519;53.230;10.390;2023-09-18T01:35:59;100598.16;;;18.93;77.43
76627;BME280;65519;53.230;10.390;2023-09-18T01:38:25;100589.56;;;18.86;77.82
76627;BME280;65519;53.230;10.390;2023-09-18T01:40:53;100579.81;;;18.80;77.59
76627;BME280;65519;53.230;10.390;2023-09-18T01:43:20;100572.19;;;18.77;77.73
76627;BME280;65519;53.230;10.390;2023-09-18T01:45:46;100570.72;;;18.71;78.14
76627;BME280;65519;53.230;10.390;2023-09-18T01:48:13;100572.00;;;18.74;78.46
76627;BME280;65519;53.230;10.390;2023-09-18T01:50:39;100565.19;;;18.71;78.14
76627;BME280;65519;53.230;10.390;2023-09-18T01:53:07;100558.72;;;18.67;78.52
76627;BME280;65519;53.230;10.390;2023-09-18T01:55:33;100553.34;;;18.71;78.33
76627;BME280;65519;53.230;10.390;2023-09-18T01:57:59;100544.09;;;18.67;78.69
76627;BME280;65519;53.230;10.390;2023-09-18T02:00:25;100542.78;;;18.64;78.41
76627;BME280;65519;53.230;10.390;2023-09-18T02:02:52;100542.78;;;18.64;79.08
76627;BME280;65519;53.230;10.390;2023-09-18T02:05:18;100535.03;;;18.57;78.75
76627;BME280;65519;53.230;10.390;2023-09-18T02:07:43;100536.94;;;18.57;79.15
76627;BME280;65519;53.230;10.390;2023-09-18T02:10:09;100544.25;;;18.62;78.32
76627;BME280;65519;53.230;10.390;2023-09-18T02:12:34;100533.69;;;18.64;78.53
76627;BME280;65519;53.230;10.390;2023-09-18T02:15:01;100535.00;;;18.66;78.33
76627;BME280;65519;53.230;10.390;2023-09-18T02:17:31;100534.34;;;18.60;78.24
76627;BME280;65519;53.230;10.390;2023-09-18T02:19:56;100533.84;;;18.50;78.73
76627;BME280;65519;53.230;10.390;2023-09-18T02:22:22;100526.53;;;18.54;78.38
76627;BME280;65519;53.230;10.390;2023-09-18T02:24:47;100518.44;;;18.57;78.10
76627;BME280;65519;53.230;10.390;2023-09-18T02:27:13;100529.13;;;18.50;78.64
76627;BME280;65519;53.230;10.390;2023-09-18T02:29:38;100516.81;;;18.48;78.97
76627;BME280;65519;53.230;10.390;2023-09-18T02:32:04;100521.19;;;18.40;79.31
76627;BME280;65519;53.230;10.390;2023-09-18T02:34:29;100515.50;;;18.45;79.04
76627;BME280;65519;53.230;10.390;2023-09-18T02:36:55;100521.66;;;18.42;79.04
76627;BME280;65519;53.230;10.390;2023-09-18T02:39:21;100516.66;;;18.36;79.14
76627;BME280;65519;53.230;10.390;2023-09-18T02:41:46;100525.41;;;18.38;79.01
76627;BME280;65519;53.230;10.390;2023-09-18T02:44:11;100520.69;;;18.30;79.56
76627;BME280;65519;53.230;10.390;2023-09-18T02:46:37;100528.50;;;18.28;79.37
76627;BME280;65519;53.230;10.390;2023-09-18T02:49:04;100517.78;;;18.26;79.22
76627;BME280;65519;53.230;10.390;2023-09-18T02:51:29;100510.47;;;18.30;79.61
76627;BME280;65519;53.230;10.390;2023-09-18T02:53:57;100518.09;;;18.24;79.42
76627;BME280;65519;53.230;10.390;2023-09-18T02:56:23;100512.09;;;18.31;79.22
76627;BME280;65519;53.230;10.390;2023-09-18T02:58:48;100509.34;;;18.22;79.46
76627;BME280;65519;53.230;10.390;2023-09-18T03:01:14;100511.78;;;18.33;79.47
76627;BME280;65519;53.230;10.390;2023-09-18T03:03:40;100500.75;;;18.24;79.93
76627;BME280;65519;53.230;10.390;2023-09-18T03:06:07;100495.72;;;18.26;79.82
76627;BME280;65519;53.230;10.390;2023-09-18T03:08:33;100495.69;;;18.17;79.87
76627;BME280;65519;53.230;10.390;2023-09-18T03:11:00;100489.03;;;18.18;79.66
76627;BME280;65519;53.230;10.390;2023-09-18T03:13:27;100480.63;;;18.23;79.41
76627;BME280;65519;53.230;10.390;2023-09-18T03:15:54;100475.91;;;18.15;79.74
76627;BME280;65519;53.230;10.390;2023-09-18T03:18:19;100472.16;;;18.20;80.51
76627;BME280;65519;53.230;10.390;2023-09-18T03:20:45;100473.81;;;18.12;80.91
76627;BME280;65519;53.230;10.390;2023-09-18T03:23:12;100466.34;;;18.13;79.52
76627;BME280;65519;53.230;10.390;2023-09-18T03:25:37;100465.53;;;18.12;80.57
76627;BME280;65519;53.230;10.390;2023-09-18T03:28:03;100467.16;;;18.13;80.13
76627;BME280;65519;53.230;10.390;2023-09-18T03:30:31;100473.94;;;18.07;80.05
76627;BME280;65519;53.230;10.390;2023-09-18T03:32:57;100466.34;;;18.04;80.79
76627;BME280;65519;53.230;10.390;2023-09-18T03:35:24;100461.47;;;18.10;80.74
76627;BME280;65519;53.230;10.390;2023-09-18T03:37:51;100451.25;;;18.10;80.29
76627;BME280;65519;53.230;10.390;2023-09-18T03:40:18;100451.25;;;18.10;80.77
76627;BME280;65519;53.230;10.390;2023-09-18T03:42:44;100449.13;;;18.07;80.53
76627;BME280;65519;53.230;10.390;2023-09-18T03:45:11;100445.72;;;18.02;80.80
76627;BME280;65519;53.230;10.390;2023-09-18T03:47:38;100449.13;;;17.99;80.90
76627;BME280;65519;53.230;10.390;2023-09-18T03:50:10;100441.66;;;17.99;80.65
76627;BME280;65519;53.230;10.390;2023-09-18T03:52:38;100439.06;;;18.03;80.70
76627;BME280;65519;53.230;10.390;2023-09-18T03:55:07;100440.22;;;18.02;80.79
76627;BME280;65519;53.230;10.390;2023-09-18T03:57:33;100429.00;;;17.98;81.07
76627;BME280;65519;53.230;10.390;2023-09-18T03:59:59;100429.31;;;17.97;81.38
76627;BME280;65519;53.230;10.390;2023-09-18T04:02:25;100418.97;;;17.94;80.84
76627;BME280;65519;53.230;10.390;2023-09-18T04:04:53;100415.88;;;17.95;81.33
76627;BME280;65519;53.230;10.390;2023-09-18T04:07:18;100414.25;;;17.94;81.31
76627;BME280;65519;53.230;10.390;2023-09-18T04:09:45;100413.09;;;17.86;81.61
76627;BME280;65519;53.230;10.390;2023-09-18T04:12:10;100406.28;;;17.75;82.40
76627;BME280;65519;53.230;10.390;2023-09-18T04:14:36;100400.94;;;17.79;82.06
76627;BME280;65519;53.230;10.390;2023-09-18T04:17:01;100394.44;;;17.75;82.31
76627;BME280;65519;53.230;10.390;2023-09-18T04:19:27;100389.44;;;17.77;82.21
76627;BME280;65519;53.230;10.390;2023-09-18T04:21:53;100395.44;;;17.79;82.23
76627;BME280;65519;53.230;10.390;2023-09-18T04:24:18;100393.16;;;17.81;81.65
76627;BME280;65519;53.230;10.390;2023-09-18T04:26:44;100381.34;;;17.72;82.06
76627;BME280;65519;53.230;10.390;2023-09-18T04:29:09;100376.28;;;17.74;81.68
76627;BME280;65519;53.230;10.390;2023-09-18T04:31:35;100368.81;;;17.74;82.13
76627;BME280;65519;53.230;10.390;2023-09-18T04:34:00;100363.50;;;17.69;82.21
76627;BME280;65519;53.230;10.390;2023-09-18T04:36:27;100357.34;;;17.72;81.88
76627;BME280;65519;53.230;10.390;2023-09-18T04:38:53;100359.75;;;17.74;82.30
76627;BME280;65519;53.230;10.390;2023-09-18T04:41:19;100359.28;;;17.72;81.84
76627;BME280;65519;53.230;10.390;2023-09-18T04:43:44;100346.13;;;17.69;82.32
76627;BME280;65519;53.230;10.390;2023-09-18T04:46:10;100341.91;;;17.80;82.15
76627;BME280;65519;53.230;10.390;2023-09-18T04:48:36;100338.50;;;17.74;81.56
76627;BME280;65519;53.230;10.390;2023-09-18T04:51:03;100331.41;;;17.73;81.56
76627;BME280;65519;53.230;10.390;2023-09-18T04:53:32;100343.53;;;17.64;82.01
76627;BME280;65519;53.230;10.390;2023-09-18T04:55:58;100326.34;;;17.67;82.53
76627;BME280;65519;53.230;10.390;2023-09-18T04:58:23;100322.13;;;17.61;82.25
76627;BME280;65519;53.230;10.390;2023-09-18T05:00:56;100307.88;;;17.67;81.79
76627;BME280;65519;53.230;10.390;2023-09-18T05:03:22;100309.16;;;17.61;82.12
76627;BME280;65519;53.230;10.390;2023-09-18T05:05:47;100306.22;;;17.58;82.42
76627;BME280;65519;53.230;10.390;2023-09-18T05:08:12;100299.44;;;17.64;82.23
76627;BME280;65519;53.230;10.390;2023-09-18T05:10:38;100291.66;;;17.66;82.14
76627;BME280;65519;53.230;10.390;2023-09-18T05:13:03;100296.19;;;17.70;82.04
76627;BME280;65519;53.230;10.390;2023-09-18T05:15:29;100287.28;;;17.73;81.56
76627;BME280;65519;53.230;10.390;2023-09-18T05:17:56;100283.03;;;17.76;81.79
76627;BME280;65519;53.230;10.390;2023-09-18T05:20:27;100273.50;;;17.73;81.56
76627;BME280;65519;53.230;10.390;2023-09-18T05:22:54;100268.75;;;17.74;81.94
76627;BME280;65519;53.230;10.390;2023-09-18T05:25:24;100259.34;;;17.75;81.88
76627;BME280;65519;53.230;10.390;2023-09-18T05:28:00;100264.56;;;17.76;81.28
76627;BME280;65519;53.230;10.390;2023-09-18T05:30:26;100270.72;;;17.82;81.39
76627;BME280;65519;53.230;10.390;2023-09-18T05:32:56;100266.19;;;17.77;81.20
76627;BME280;65519;53.230;10.390;2023-09-18T05:35:22;100258.72;;;17.78;81.29
76627;BME280;65519;53.230;10.390;2023-09-18T05:37:49;100259.19;;;17.80;81.37
76627;BME280;65519;53.230;10.390;2023-09-18T05:40:16;100251.56;;;17.85;81.58
76627;BME280;65519;53.230;10.390;2023-09-18T05:42:43;100259.19;;;17.88;81.57
76627;BME280;65519;53.230;10.390;2023-09-18T05:45:10;100262.09;;;17.92;81.09
76627;BME280;65519;53.230;10.390;2023-09-18T05:47:36;100226.94;;;17.80;81.29
76627;BME280;65519;53.230;10.390;2023-09-18T05:50:02;100243.28;;;17.94;81.00
76627;BME280;65519;53.230;10.390;2023-09-18T05:52:32;100241.31;;;18.03;80.72
76627;BME280;65519;53.230;10.390;2023-09-18T05:55:02;100238.03;;;18.10;80.83
76627;BME280;65519;53.230;10.390;2023-09-18T05:57:28;100232.81;;;18.17;80.43
76627;BME280;65519;53.230;10.390;2023-09-18T05:59:56;100223.53;;;18.21;80.68
76627;BME280;65519;53.230;10.390;2023-09-18T06:02:22;100222.88;;;18.24;80.54
76627;BME280;65519;53.230;10.390;2023-09-18T06:04:53;100223.63;;;18.34;79.99
76627;BME280;65519;53.230;10.390;2023-09-18T06:07:19;100225.53;;;18.42;79.79
76627;BME280;65519;53.230;10.390;2023-09-18T06:09:44;100211.03;;;18.53;79.46
76627;BME280;65519;53.230;10.390;2023-09-18T06:12:10;100218.97;;;18.64;79.02
76627;BME280;65519;53.230;10.390;2023-09-18T06:14:35;100218.44;;;18.70;78.63
76627;BME280;65519;53.230;10.390;2023-09-18T06:17:03;100228.00;;;18.73;78.49
76627;BME280;65519;53.230;10.390;2023-09-18T06:19:28;100227.31;;;18.76;78.58
76627;BME280;65519;53.230;10.390;2023-09-18T06:21:54;100224.03;;;18.82;77.89
76627;BME280;65519;53.230;10.390;2023-09-18T06:24:19;100224.97;;;18.86;78.22
76627;BME280;65519;53.230;10.390;2023-09-18T06:26:45;100217.31;;;18.92;78.23
76627;BME280;65519;53.230;10.390;2023-09-18T06:29:10;100209.22;;;18.87;78.50
76627;BME280;65519;53.230;10.390;2023-09-18T06:31:36;100216.50;;;18.91;78.43
76627;BME280;65519;53.230;10.390;2023-09-18T06:34:01;100203.97;;;18.94;78.04
76627;BME280;65519;53.230;10.390;2023-09-18T06:36:26;100204.91;;;18.98;78.13
76627;BME280;65519;53.230;10.390;2023-09-18T06:38:52;100199.88;;;19.00;78.37
76627;BME280;65519;53.230;10.390;2023-09-18T06:41:18;100194.44;;;19.04;78.52
76627;BME280;65519;53.230;10.390;2023-09-18T06:43:44;100181.44;;;19.04;77.71
76627;BME280;65519;53.230;10.390;2023-09-18T06:46:09;100174.94;;;19.09;78.27
76627;BME280;65519;53.230;10.390;2023-09-18T06:48:35;100174.44;;;19.07;78.09
76627;BME280;65519;53.230;10.390;2023-09-18T06:51:00;100170.69;;;19.11;77.93
76627;BME280;65519;53.230;10.390;2023-09-18T06:53:26;100167.09;;;19.11;77.86
76627;BME280;65519;53.230;10.390;2023-09-18T06:55:53;100162.88;;;19.13;77.72
76627;BME280;65519;53.230;10.390;2023-09-18T06:58:18;100145.59;;;19.16;77.21
76627;BME280;65519;53.230;10.390;2023-09-18T07:00:44;100144.78;;;19.16;77.35
76627;BME280;65519;53.230;10.390;2023-09-18T07:03:09;100145.06;;;19.23;77.40
76627;BME280;65519;53.230;10.390;2023-09-18T07:05:36;100142.41;;;19.26;77.20
76627;BME280;65519;53.230;10.390;2023-09-18T07:08:02;100146.44;;;19.29;77.20
76627;BME280;65519;53.230;10.390;2023-09-18T07:10:30;100142.19;;;19.31;77.29
76627;BME280;65519;53.230;10.390;2023-09-18T07:12:56;100142.06;;;19.28;77.40
76627;BME280;65519;53.230;10.390;2023-09-18T07:15:21;100138.97;;;19.29;77.68
76627;BME280;65519;53.230;10.390;2023-09-18T07:17:47;100138.63;;;19.31;77.97
76627;BME280;65519;53.230;10.390;2023-09-18T07:20:13;100115.84;;;19.34;77.84
76627;BME280;65519;53.230;10.390;2023-09-18T07:22:40;100106.97;;;19.41;77.87
76627;BME280;65519;53.230;10.390;2023-09-18T07:25:06;100117.63;;;19.51;77.48
76627;BME280;65519;53.230;10.390;2023-09-18T07:27:32;100125.81;;;19.59;76.86
76627;BME280;65519;53.230;10.390;2023-09-18T07:29:58;100119.75;;;19.66;77.18
76627;BME280;65519;53.230;10.390;2023-09-18T07:32:24;100116.25;;;19.69;76.27
76627;BME280;65519;53.230;10.390;2023-09-18T07:34:51;100104.41;;;19.81;76.31
76627;BME280;65519;53.230;10.390;2023-09-18T07:37:17;100103.84;;;19.87;75.57
76627;BME280;65519;53.230;10.390;2023-09-18T07:39:46;100111.69;;;19.85;75.28
76627;BME280;65519;53.230;10.390;2023-09-18T07:42:12;100113.53;;;19.93;75.76
76627;BME280;65519;53.230;10.390;2023-09-18T07:44:37;100110.63;;;20.02;75.35
76627;BME280;65519;53.230;10.390;2023-09-18T07:47:03;100102.25;;;20.11;74.72
76627;BME280;65519;53.230;10.390;2023-09-18T07:49:29;100100.63;;;20.10;74.55
76627;BME280;65519;53.230;10.390;2023-09-18T07:51:54;100102.78;;;20.16;74.46
76627;BME280;65519;53.230;10.390;2023-09-18T07:54:20;100099.00;;;20.21;74.64
76627;BME280;65519;53.230;10.390;2023-09-18T07:56:46;100101.44;;;20.22;74.62
76627;BME280;65519;53.230;10.390;2023-09-18T07:59:11;100104.97;;;20.23;74.89
76627;BME280;65519;53.230;10.390;2023-09-18T08:01:39;100103.38;;;20.22;75.19
76627;BME280;65519;53.230;10.390;2023-09-18T08:04:05;100106.25;;;20.25;75.55
76627;BME280;65519;53.230;10.390;2023-09-18T08:06:31;100102.78;;;20.28;75.51
76627;BME280;65519;53.230;10.390;2023-09-18T08:08:56;100094.03;;;20.26;75.10
76627;BME280;65519;53.230;10.390;2023-09-18T08:11:22;100093.91;;;20.23;75.41
76627;BME280;65519;53.230;10.390;2023-09-18T08:13:47;100090.44;;;20.26;75.30
76627;BME280;65519;53.230;10.390;2023-09-18T08:16:12;100080.53;;;20.25;74.96
76627;BME280;65519;53.230;10.390;2023-09-18T08:18:39;100093.56;;;20.24;74.59
76627;BME280;65519;53.230;10.390;2023-09-18T08:21:07;100095.16;;;20.25;74.82
76627;BME280;65519;53.230;10.390;2023-09-18T08:23:35;100131.50;;;20.24;74.56
76627;BME280;65519;53.230;10.390;2023-09-18T08:26:01;100130.00;;;20.14;74.95
76627;BME280;65519;53.230;10.390;2023-09-18T08:28:29;100114.56;;;20.13;75.56
76627;BME280;65519;53.230;10.390;2023-09-18T08:30:55;100135.06;;;20.12;75.36
76627;BME280;65519;53.230;10.390;2023-09-18T08:33:20;100123.56;;;20.10;75.79
76627;BME280;65519;53.230;10.390;2023-09-18T08:35:46;100124.81;;;20.13;75.54
76627;BME280;65519;53.230;10.390;2023-09-18T08:38:13;100123.91;;;20.21;76.02
76627;BME280;65519;53.230;10.390;2023-09-18T08:40:41;100129.78;;;20.19;75.88
76627;BME280;65519;53.230;10.390;2023-09-18T08:43:07;100123.09;;;20.20;76.48
76627;BME280;65519;53.230;10.390;2023-09-18T08:45:52;100134.16;;;20.20;76.05
76627;BME280;65519;53.230;10.390;2023-09-18T08:48:19;100153.06;;;20.18;76.32
76627;BME280;65519;53.230;10.390;2023-09-18T08:50:45;100159.28;;;20.15;76.08
76627;BME280;65519;53.230;10.390;2023-09-18T08:53:11;100159.97;;;20.12;75.85
76627;BME280;65519;53.230;10.390;2023-09-18T08:55:37;100143.63;;;20.07;77.35
76627;BME280;65519;53.230;10.390;2023-09-18T08:58:02;100138.31;;;20.02;76.94
76627;BME280;65519;53.230;10.390;2023-09-18T09:00:28;100137.41;;;19.98;77.24
76627;BME280;65519;53.230;10.390;2023-09-18T09:02:55;100122.84;;;20.01;77.50
76627;BME280;65519;53.230;10.390;2023-09-18T09:05:21;100118.59;;;19.91;77.88
76627;BME280;65519;53.230;10.390;2023-09-18T09:07:48;100128.97;;;19.94;77.53
76627;BME280;65519;53.230;10.390;2023-09-18T09:10:14;100125.41;;;19.94;78.06
76627;BME280;65519;53.230;10.390;2023-09-18T09:15:11;100122.16;;;20.04;78.07
76627;BME280;65519;53.230;10.390;2023-09-18T09:17:37;100128.72;;;20.24;77.47
76627;BME280;65519;53.230;10.390;2023-09-18T09:20:11;100123.69;;;20.38;76.88
76627;BME280;65519;53.230;10.390;2023-09-18T09:22:38;100110.03;;;20.57;76.26
76627;BME280;65519;53.230;10.390;2023-09-18T09:25:21;100111.16;;;20.68;75.32
76627;BME280;65519;53.230;10.390;2023-09-18T09:27:47;100100.97;;;20.72;75.61
76627;BME280;65519;53.230;10.390;2023-09-18T09:30:24;100099.13;;;20.76;75.44
76627;BME280;65519;53.230;10.390;2023-09-18T09:32:56;100092.63;;;20.85;75.47
76627;BME280;65519;53.230;10.390;2023-09-18T09:35:27;100086.59;;;20.95;74.33
76627;BME280;65519;53.230;10.390;2023-09-18T09:38:09;100085.63;;;21.03;74.77
76627;BME280;65519;53.230;10.390;2023-09-18T09:40:39;100091.66;;;21.21;73.96
76627;BME280;65519;53.230;10.390;2023-09-18T09:43:08;100080.34;;;21.26;73.54
76627;BME280;65519;53.230;10.390;2023-09-18T09:45:33;100067.75;;;21.28;73.33
76627;BME280;65519;53.230;10.390;2023-09-18T09:48:05;100079.56;;;21.41;73.38
76627;BME280;65519;53.230;10.390;2023-09-18T09:50:32;100075.44;;;21.51;73.67
76627;BME280;65519;53.230;10.390;2023-09-18T09:52:58;100071.53;;;21.52;73.00
76627;BME280;65519;53.230;10.390;2023-09-18T09:55:29;100071.13;;;21.53;72.76
76627;BME280;65519;53.230;10.390;2023-09-18T09:57:59;100078.75;;;21.56;72.95
76627;BME280;65519;53.230;10.390;2023-09-18T10:00:45;100068.56;;;21.60;72.90
76627;BME280;65519;53.230;10.390;2023-09-18T10:03:13;100082.69;;;21.55;73.19
76627;BME280;65519;53.230;10.390;2023-09-18T10:05:41;100070.63;;;21.47;73.66
76627;BME280;65519;53.230;10.390;2023-09-18T10:08:17;100066.78;;;21.52;73.74
76627;BME280;65519;53.230;10.390;2023-09-18T10:10:51;100061.47;;;21.47;73.56
76627;BME280;65519;53.230;10.390;2023-09-18T10:13:18;100074.28;;;21.52;74.30
76627;BME280;65519;53.230;10.390;2023-09-18T10:15:48;100072.22;;;21.48;75.11
76627;BME280;65519;53.230;10.390;2023-09-18T10:18:22;100074.53;;;21.46;74.93
76627;BME280;65519;53.230;10.390;2023-09-18T10:20:56;100073.03;;;21.49;74.90
76627;BME280;65519;53.230;10.390;2023-09-18T10:23:34;100070.78;;;21.55;75.00
76627;BME280;65519;53.230;10.390;2023-09-18T10:26:03;100075.09;;;21.52;75.18
76627;BME280;65519;53.230;10.390;2023-09-18T10:28:31;100073.56;;;21.55;75.36
76627;BME280;65519;53.230;10.390;2023-09-18T10:30:58;100081.06;;;21.54;75.11
76627;BME280;65519;53.230;10.390;2023-09-18T10:33:25;100082.78;;;21.59;74.79
76627;BME280;65519;53.230;10.390;2023-09-18T10:35:53;100081.97;;;21.58;74.72
76627;BME280;65519;53.230;10.390;2023-09-18T10:38:18;100081.28;;;21.61;74.33
76627;BME280;65519;53.230;10.390;2023-09-18T10:40:46;100084.66;;;21.70;74.48
76627;BME280;65519;53.230;10.390;2023-09-18T10:43:15;100078.56;;;21.80;74.06
76627;BME280;65519;53.230;10.390;2023-09-18T10:45:41;100084.28;;;21.88;73.67
76627;BME280;65519;53.230;10.390;2023-09-18T10:48:09;100084.47;;;21.95;72.96
76627;BME280;65519;53.230;10.390;2023-09-18T10:50:39;100084.66;;;22.02;73.45
76627;BME280;65519;53.230;10.390;2023-09-18T10:53:05;100083.22;;;22.08;72.30
76627;BME280;65519;53.230;10.390;2023-09-18T10:55:31;100080.16;;;22.13;73.19
76627;BME280;65519;53.230;10.390;2023-09-18T10:57:59;100077.09;;;22.18;73.19
76627;BME280;65519;53.230;10.390;2023-09-18T11:00:26;100077.03;;;22.14;72.68
76627;BME280;65519;53.230;10.390;2023-09-18T11:02:53;100082.66;;;22.18;72.30
76627;BME280;65519;53.230;10.390;2023-09-18T11:05:35;100083.09;;;22.20;73.30
76627;BME280;65519;53.230;10.390;2023-09-18T11:08:42;100079.59;;;22.23;71.96
76627;BME280;65519;53.230;10.390;2023-09-18T11:11:10;100085.31;;;22.30;72.58
76627;BME280;65519;53.230;10.390;2023-09-18T11:13:49;100094.25;;;22.39;72.35
76627;BME280;65519;53.230;10.390;2023-09-18T11:16:33;100092.56;;;22.35;72.76
76627;BME280;65519;53.230;10.390;2023-09-18T11:21:30;100084.03;;;22.43;72.93
76627;BME280;65519;53.230;10.390;2023-09-18T11:26:34;100078.19;;;22.48;72.64
76627;BME280;65519;53.230;10.390;2023-09-18T11:29:08;100075.94;;;22.54;72.22
76627;BME280;65519;53.230;10.390;2023-09-18T11:31:48;100085.38;;;22.69;70.67
76627;BME280;65519;53.230;10.390;2023-09-18T11:34:28;100089.47;;;22.75;71.14
76627;BME280;65519;53.230;10.390;2023-09-18T11:36:57;100093.16;;;22.79;70.49
76627;BME280;65519;53.230;10.390;2023-09-18T11:39:40;100087.84;;;22.74;70.37
76627;BME280;65519;53.230;10.390;2023-09-18T11:42:26;100068.41;;;22.93;69.96
76627;BME280;65519;53.230;10.390;2023-09-18T11:44:54;100086.44;;;22.80;70.45
76627;BME280;65519;53.230;10.390;2023-09-18T11:47:25;100093.59;;;22.81;69.78
76627;BME280;65519;53.230;10.390;2023-09-18T11:49:55;100098.28;;;22.77;70.27
76627;BME280;65519;53.230;10.390;2023-09-18T11:52:24;100099.72;;;22.71;70.88
76627;BME280;65519;53.230;10.390;2023-09-18T11:54:50;100107.88;;;22.64;70.79
76627;BME280;65519;53.230;10.390;2023-09-18T11:57:17;100113.00;;;22.62;70.05
76627;BME280;65519;53.230;10.390;2023-09-18T11:59:44;100119.34;;;22.62;70.30
76627;BME280;65519;53.230;10.390;2023-09-18T12:02:12;100130.41;;;22.58;70.53
76627;BME280;65519;53.230;10.390;2023-09-18T12:04:46;100115.75;;;22.62;70.80
76627;BME280;65519;53.230;10.390;2023-09-18T12:07:12;100114.13;;;22.76;70.25
76627;BME280;65519;53.230;10.390;2023-09-18T12:09:39;100103.69;;;22.89;69.14
76627;BME280;65519;53.230;10.390;2023-09-18T12:12:05;100108.44;;;22.88;68.94
76627;BME280;65519;53.230;10.390;2023-09-18T12:14:32;100107.78;;;22.95;69.15
76627;BME280;65519;53.230;10.390;2023-09-18T12:16:59;100102.97;;;22.92;68.46
76627;BME280;65519;53.230;10.390;2023-09-18T12:19:25;100089.13;;;22.96;68.08
76627;BME280;65519;53.230;10.390;2023-09-18T12:21:51;100079.69;;;23.00;68.14
76627;BME280;65519;53.230;10.390;2023-09-18T12:26:49;100084.81;;;23.40;66.02
76627;BME280;65519;53.230;10.390;2023-09-18T12:29:15;100078.91;;;23.87;65.33
76627;BME280;65519;53.230;10.390;2023-09-18T12:31:40;100076.00;;;24.07;63.07
76627;BME280;65519;53.230;10.390;2023-09-18T12:34:27;100082.81;;;24.09;62.46
76627;BME280;65519;53.230;10.390;2023-09-18T12:36:53;100071.22;;;24.30;62.45
76627;BME280;65519;53.230;10.390;2023-09-18T12:39:20;100073.66;;;24.35;62.01
76627;BME280;65519;53.230;10.390;2023-09-18T12:41:46;100081.31;;;24.15;61.69
76627;BME280;65519;53.230;10.390;2023-09-18T12:44:12;100068.44;;;23.81;62.86
76627;BME280;65519;53.230;10.390;2023-09-18T12:46:40;100073.09;;;23.73;63.14
76627;BME280;65519;53.230;10.390;2023-09-18T12:49:22;100080.88;;;23.64;63.97
76627;BME280;65519;53.230;10.390;2023-09-18T12:51:58;100080.50;;;23.88;63.37
76627;BME280;65519;53.230;10.390;2023-09-18T12:54:43;100077.41;;;23.71;64.01